sensor_id;sensor_type;location;lat;lon;timestamp;pressure;altitude;pressure_sealevel;temperature;humidity
14293;BME280;62290;59.420;17.842;2023-02-16T00:01:23;101394.50;;;25.83;19.67
14293;BME280;62290;59.420;17.842;2023-02-16T00:03:53;101385.41;;;25.84;19.89
14293;BME280;62290;59.420;17.842;2023-02-16T00:06:22;101392.66;;;25.84;19.49
14293;BME280;62290;59.420;17.842;2023-02-16T00:08:53;101383.09;;;25.80;20.04
14293;BME280;62290;59.420;17.842;2023-02-16T00:11:25;101381.53;;;25.77;19.53
14293;BME280;62290;59.420;17.842;2023-02-16T00:14:13;101384.47;;;25.74;19.66
14293;BME280;62290;59.420;17.842;2023-02-16T00:16:41;101378.22;;;25.73;19.92
14293;BME280;62290;59.420;17.842;2023-02-16T00:19:20;101380.66;;;25.76;19.76
14293;BME280;62290;59.420;17.842;2023-02-16T00:21:50;101379.34;;;25.71;19.98
14293;BME280;62290;59.420;17.842;2023-02-16T00:24:20;101382.25;;;25.79;20.05
14293;BME280;62290;59.420;17.842;2023-02-16T00:26:48;101382.25;;;25.79;19.85
14293;BME280;62290;59.420;17.842;2023-02-16T00:29:19;101384.69;;;25.82;19.61
14293;BME280;62290;59.420;17.842;2023-02-16T00:31:50;101364.25;;;25.68;19.67
14293;BME280;62290;59.420;17.842;2023-02-16T00:34:30;101379.28;;;25.82;19.50
14293;BME280;62290;59.420;17.842;2023-02-16T00:37:01;101376.72;;;25.81;19.61
14293;BME280;62290;59.420;17.842;2023-02-16T00:39:31;101371.44;;;25.79;19.94
14293;BME280;62290;59.420;17.842;2023-02-16T00:42:01;101371.19;;;25.82;19.48
14293;BME280;62290;59.420;17.842;2023-02-16T00:44:34;101368.38;;;25.84;19.56
14293;BME280;62290;59.420;17.842;2023-02-16T00:47:13;101368.06;;;25.87;19.60
14293;BME280;62290;59.420;17.842;2023-02-16T00:49:44;101365.97;;;25.90;19.75
14293;BME280;62290;59.420;17.842;2023-02-16T00:52:26;101371.09;;;25.93;19.82
14293;BME280;62290;59.420;17.842;2023-02-16T00:54:58;101359.59;;;25.91;19.43
14293;BME280;62290;59.420;17.842;2023-02-16T00:57:30;101374.78;;;25.92;19.79
14293;BME280;62290;59.420;17.842;2023-02-16T01:00:02;101369.09;;;25.86;19.47
14293;BME280;62290;59.420;17.842;2023-02-16T01:02:32;101353.81;;;25.75;19.54
14293;BME280;62290;59.420;17.842;2023-02-16T01:05:00;101352.53;;;25.79;19.66
14293;BME280;62290;59.420;17.842;2023-02-16T01:07:29;101356.25;;;25.78;20.00
14293;BME280;62290;59.420;17.842;2023-02-16T01:10:17;101348.53;;;25.73;19.88
14293;BME280;62290;59.420;17.842;2023-02-16T01:13:03;101344.44;;;25.79;19.94
14293;BME280;62290;59.420;17.842;2023-02-16T01:15:32;101341.63;;;25.81;19.66
14293;BME280;62290;59.420;17.842;2023-02-16T01:18:01;101338.78;;;25.82;19.77
14293;BME280;62290;59.420;17.842;2023-02-16T01:20:29;101331.69;;;25.81;19.63
14293;BME280;62290;59.420;17.842;2023-02-16T01:22:58;101334.38;;;25.81;19.92
14293;BME280;62290;59.420;17.842;2023-02-16T01:25:28;101335.09;;;25.83;20.06
14293;BME280;62290;59.420;17.842;2023-02-16T01:27:56;101327.84;;;25.84;19.54
14293;BME280;62290;59.420;17.842;2023-02-16T01:30:25;101332.84;;;25.88;19.69
14293;BME280;62290;59.420;17.842;2023-02-16T01:32:53;101329.16;;;25.89;19.48
14293;BME280;62290;59.420;17.842;2023-02-16T01:35:22;101324.75;;;25.88;19.66
14293;BME280;62290;59.420;17.842;2023-02-16T01:37:51;101325.72;;;25.87;20.02
14293;BME280;62290;59.420;17.842;2023-02-16T01:40:27;101324.34;;;25.93;20.00
14293;BME280;62290;59.420;17.842;2023-02-16T01:43:04;101310.13;;;25.91;19.79
14293;BME280;62290;59.420;17.842;2023-02-16T01:45:40;101317.38;;;25.90;20.00
14293;BME280;62290;59.420;17.842;2023-02-16T01:48:17;101300.03;;;25.93;20.10
14293;BME280;62290;59.420;17.842;2023-02-16T01:50:55;101295.50;;;25.93;20.16
14293;BME280;62290;59.420;17.842;2023-02-16T01:53:27;101294.38;;;25.96;20.21
14293;BME280;62290;59.420;17.842;2023-02-16T01:55:59;101295.06;;;25.98;19.98
14293;BME280;62290;59.420;17.842;2023-02-16T01:58:35;101280.00;;;25.95;20.15
14293;BME280;62290;59.420;17.842;2023-02-16T02:01:32;101277.91;;;25.99;19.80
14293;BME280;62290;59.420;17.842;2023-02-16T02:04:11;101269.09;;;25.97;19.91
14293;BME280;62290;59.420;17.842;2023-02-16T02:06:59;101284.53;;;25.95;20.02
14293;BME280;62290;59.420;17.842;2023-02-16T02:09:34;101267.22;;;25.97;19.74
14293;BME280;62290;59.420;17.842;2023-02-16T02:12:09;101265.53;;;25.96;19.85
14293;BME280;62290;59.420;17.842;2023-02-16T02:14:42;101259.53;;;25.93;20.32
14293;BME280;62290;59.420;17.842;2023-02-16T02:17:15;101261.50;;;25.91;20.25
14293;BME280;62290;59.420;17.842;2023-02-16T02:19:53;101254.53;;;25.88;20.30
14293;BME280;62290;59.420;17.842;2023-02-16T02:22:44;101269.28;;;25.84;20.26
14293;BME280;62290;59.420;17.842;2023-02-16T02:25:49;101264.91;;;25.83;19.99
14293;BME280;62290;59.420;17.842;2023-02-16T02:28:31;101260.22;;;25.85;19.92
14293;BME280;62290;59.420;17.842;2023-02-16T02:31:09;101250.13;;;25.87;19.99
14293;BME280;62290;59.420;17.842;2023-02-16T02:33:53;101250.56;;;25.92;19.86
14293;BME280;62290;59.420;17.842;2023-02-16T02:36:32;101235.38;;;25.91;19.88
14293;BME280;62290;59.420;17.842;2023-02-16T02:39:12;101235.38;;;25.91;20.30
14293;BME280;62290;59.420;17.842;2023-02-16T02:41:50;101233.38;;;25.93;20.30
14293;BME280;62290;59.420;17.842;2023-02-16T02:44:55;101235.38;;;25.91;20.30
14293;BME280;62290;59.420;17.842;2023-02-16T02:47:36;101223.97;;;25.88;20.40
14293;BME280;62290;59.420;17.842;2023-02-16T02:50:37;101226.41;;;25.91;20.33
14293;BME280;62290;59.420;17.842;2023-02-16T02:53:11;101218.88;;;25.94;20.18
14293;BME280;62290;59.420;17.842;2023-02-16T02:55:44;101217.72;;;25.87;20.00
14293;BME280;62290;59.420;17.842;2023-02-16T02:58:33;101219.44;;;25.88;20.32
14293;BME280;62290;59.420;17.842;2023-02-16T03:01:35;101226.00;;;25.95;20.47
14293;BME280;62290;59.420;17.842;2023-02-16T03:04:06;101219.34;;;25.99;20.34
14293;BME280;62290;59.420;17.842;2023-02-16T03:06:38;101208.97;;;26.04;20.35
14293;BME280;62290;59.420;17.842;2023-02-16T03:09:10;101218.75;;;26.05;19.94
14293;BME280;62290;59.420;17.842;2023-02-16T03:11:40;101218.66;;;26.07;20.27
14293;BME280;62290;59.420;17.842;2023-02-16T03:14:30;101209.09;;;26.03;20.30
14293;BME280;62290;59.420;17.842;2023-02-16T03:17:03;101210.81;;;26.04;20.32
14293;BME280;62290;59.420;17.842;2023-02-16T03:19:51;101213.63;;;26.02;20.23
14293;BME280;62290;59.420;17.842;2023-02-16T03:22:38;101205.53;;;26.02;19.96
14293;BME280;62290;59.420;17.842;2023-02-16T03:25:27;101207.41;;;26.02;19.98
14293;BME280;62290;59.420;17.842;2023-02-16T03:28:14;101201.25;;;26.00;20.08
14293;BME280;62290;59.420;17.842;2023-02-16T03:31:01;101198.56;;;26.00;20.26
14293;BME280;62290;59.420;17.842;2023-02-16T03:33:32;101201.00;;;26.03;20.18
14293;BME280;62290;59.420;17.842;2023-02-16T03:36:01;101199.31;;;26.02;19.76
14293;BME280;62290;59.420;17.842;2023-02-16T03:38:30;101194.72;;;26.02;19.90
14293;BME280;62290;59.420;17.842;2023-02-16T03:40:58;101189.91;;;25.96;20.14
14293;BME280;62290;59.420;17.842;2023-02-16T03:43:27;101172.53;;;25.89;20.38
14293;BME280;62290;59.420;17.842;2023-02-16T03:45:55;101180.06;;;25.95;19.98
14293;BME280;62290;59.420;17.842;2023-02-16T03:48:24;101178.81;;;25.99;20.22
14293;BME280;62290;59.420;17.842;2023-02-16T03:50:53;101171.56;;;26.00;19.98
14293;BME280;62290;59.420;17.842;2023-02-16T03:53:21;101170.84;;;25.98;20.37
14293;BME280;62290;59.420;17.842;2023-02-16T03:55:49;101177.09;;;25.98;20.39
14293;BME280;62290;59.420;17.842;2023-02-16T03:58:19;101175.97;;;26.01;20.38
14293;BME280;62290;59.420;17.842;2023-02-16T04:00:47;101162.19;;;26.04;20.26
14293;BME280;62290;59.420;17.842;2023-02-16T04:03:16;101170.16;;;26.05;20.25
14293;BME280;62290;59.420;17.842;2023-02-16T04:05:44;101164.31;;;26.10;20.00
14293;BME280;62290;59.420;17.842;2023-02-16T04:08:14;101166.19;;;26.09;19.81
14293;BME280;62290;59.420;17.842;2023-02-16T04:10:42;101157.06;;;26.10;20.38
14293;BME280;62290;59.420;17.842;2023-02-16T04:13:10;101158.91;;;26.10;20.36
14293;BME280;62290;59.420;17.842;2023-02-16T04:15:37;101142.44;;;26.03;20.32
14293;BME280;62290;59.420;17.842;2023-02-16T04:18:06;101155.16;;;26.12;20.29
14293;BME280;62290;59.420;17.842;2023-02-16T04:20:34;101151.31;;;26.15;20.31
14293;BME280;62290;59.420;17.842;2023-02-16T04:23:03;101143.06;;;26.16;20.01
14293;BME280;62290;59.420;17.842;2023-02-16T04:25:32;101135.94;;;26.15;19.90
14293;BME280;62290;59.420;17.842;2023-02-16T04:28:00;101129.50;;;26.07;20.27
14293;BME280;62290;59.420;17.842;2023-02-16T04:30:29;101131.78;;;26.11;20.35
14293;BME280;62290;59.420;17.842;2023-02-16T04:32:58;101141.16;;;26.07;19.91
14293;BME280;62290;59.420;17.842;2023-02-16T04:35:26;101148.69;;;26.04;20.42
14293;BME280;62290;59.420;17.842;2023-02-16T04:37:54;101136.16;;;26.03;20.54
14293;BME280;62290;59.420;17.842;2023-02-16T04:40:22;101131.19;;;25.98;20.71
14293;BME280;62290;59.420;17.842;2023-02-16T04:42:51;101140.16;;;25.99;20.53
14293;BME280;62290;59.420;17.842;2023-02-16T04:45:19;101147.25;;;26.00;20.53
14293;BME280;62290;59.420;17.842;2023-02-16T04:47:47;101137.31;;;26.00;20.92
14293;BME280;62290;59.420;17.842;2023-02-16T04:50:15;101133.91;;;25.98;20.84
14293;BME280;62290;59.420;17.842;2023-02-16T04:52:43;101136.59;;;25.98;20.40
14293;BME280;62290;59.420;17.842;2023-02-16T04:55:11;101132.91;;;25.99;20.88
14293;BME280;62290;59.420;17.842;2023-02-16T04:57:39;101126.78;;;25.97;20.89
14293;BME280;62290;59.420;17.842;2023-02-16T05:00:10;101126.66;;;25.99;20.50
14293;BME280;62290;59.420;17.842;2023-02-16T05:02:39;101125.78;;;25.98;20.62
14293;BME280;62290;59.420;17.842;2023-02-16T05:05:07;101120.06;;;25.92;20.49
14293;BME280;62290;59.420;17.842;2023-02-16T05:07:35;101113.28;;;25.97;20.75
14293;BME280;62290;59.420;17.842;2023-02-16T05:10:04;101114.13;;;25.98;20.52
14293;BME280;62290;59.420;17.842;2023-02-16T05:12:32;101131.91;;;26.00;20.70
14293;BME280;62290;59.420;17.842;2023-02-16T05:15:19;101112.28;;;25.98;20.46
14293;BME280;62290;59.420;17.842;2023-02-16T05:17:47;101107.16;;;25.95;20.64
14293;BME280;62290;59.420;17.842;2023-02-16T05:20:15;101118.28;;;26.02;20.30
14293;BME280;62290;59.420;17.842;2023-02-16T05:22:44;101121.69;;;26.04;20.31
14293;BME280;62290;59.420;17.842;2023-02-16T05:25:12;101103.63;;;26.04;20.25
14293;BME280;62290;59.420;17.842;2023-02-16T05:27:40;101100.94;;;26.04;20.28
14293;BME280;62290;59.420;17.842;2023-02-16T05:30:09;101095.53;;;26.04;20.51
14293;BME280;62290;59.420;17.842;2023-02-16T05:32:39;101091.69;;;26.07;20.57
14293;BME280;62290;59.420;17.842;2023-02-16T05:35:07;101092.97;;;26.03;20.33
14293;BME280;62290;59.420;17.842;2023-02-16T05:37:35;101088.56;;;26.02;20.25
14293;BME280;62290;59.420;17.842;2023-02-16T05:40:03;101074.31;;;26.00;20.31
14293;BME280;62290;59.420;17.842;2023-02-16T05:42:31;101089.13;;;26.05;20.49
14293;BME280;62290;59.420;17.842;2023-02-16T05:44:59;101080.16;;;26.05;20.19
14293;BME280;62290;59.420;17.842;2023-02-16T05:47:28;101082.44;;;26.00;20.22
14293;BME280;62290;59.420;17.842;2023-02-16T05:49:57;101082.00;;;25.95;20.06
14293;BME280;62290;59.420;17.842;2023-02-16T05:52:25;101077.47;;;25.95;20.21
14293;BME280;62290;59.420;17.842;2023-02-16T05:54:53;101073.91;;;25.95;20.65
14293;BME280;62290;59.420;17.842;2023-02-16T05:57:21;101074.63;;;25.97;20.25
14293;BME280;62290;59.420;17.842;2023-02-16T05:59:49;101072.22;;;25.94;20.55
14293;BME280;62290;59.420;17.842;2023-02-16T06:02:17;101063.69;;;25.89;20.16
14293;BME280;62290;59.420;17.842;2023-02-16T06:04:45;101060.13;;;25.88;20.17
14293;BME280;62290;59.420;17.842;2023-02-16T06:07:15;101050.19;;;25.89;20.34
14293;BME280;62290;59.420;17.842;2023-02-16T06:09:43;101051.00;;;25.89;20.50
14293;BME280;62290;59.420;17.842;2023-02-16T06:12:11;101049.88;;;25.92;20.15
14293;BME280;62290;59.420;17.842;2023-02-16T06:14:39;101058.81;;;25.92;20.58
14293;BME280;62290;59.420;17.842;2023-02-16T06:17:07;101048.31;;;25.89;20.54
14293;BME280;62290;59.420;17.842;2023-02-16T06:19:35;101037.38;;;25.91;20.56
14293;BME280;62290;59.420;17.842;2023-02-16T06:22:03;101049.31;;;25.88;20.37
14293;BME280;62290;59.420;17.842;2023-02-16T06:24:32;101046.19;;;25.93;20.32
14293;BME280;62290;59.420;17.842;2023-02-16T06:27:00;101052.28;;;25.95;20.73
14293;BME280;62290;59.420;17.842;2023-02-16T06:29:28;101038.09;;;25.93;20.28
14293;BME280;62290;59.420;17.842;2023-02-16T06:31:57;101051.44;;;25.94;20.32
14293;BME280;62290;59.420;17.842;2023-02-16T06:34:25;101053.84;;;25.97;20.61
14293;BME280;62290;59.420;17.842;2023-02-16T06:36:53;101053.84;;;25.97;20.87
14293;BME280;62290;59.420;17.842;2023-02-16T06:39:21;101051.16;;;25.97;20.49
14293;BME280;62290;59.420;17.842;2023-02-16T06:41:51;101058.28;;;25.98;20.30
14293;BME280;62290;59.420;17.842;2023-02-16T06:44:19;101058.56;;;25.95;20.59
14293;BME280;62290;59.420;17.842;2023-02-16T06:46:47;101050.34;;;25.97;20.33
14293;BME280;62290;59.420;17.842;2023-02-16T06:49:17;101047.47;;;25.98;20.60
14293;BME280;62290;59.420;17.842;2023-02-16T06:51:47;101039.53;;;25.97;20.79
14293;BME280;62290;59.420;17.842;2023-02-16T06:54:17;101041.50;;;25.95;20.72
14293;BME280;62290;59.420;17.842;2023-02-16T06:56:45;101036.38;;;25.92;20.79
14293;BME280;62290;59.420;17.842;2023-02-16T06:59:14;101042.78;;;25.91;20.83
14293;BME280;62290;59.420;17.842;2023-02-16T07:01:42;101048.31;;;25.89;20.89
14293;BME280;62290;59.420;17.842;2023-02-16T07:04:11;101039.22;;;25.90;20.42
14293;BME280;62290;59.420;17.842;2023-02-16T07:06:39;101038.53;;;25.88;20.39
14293;BME280;62290;59.420;17.842;2023-02-16T07:09:07;101032.41;;;25.86;20.74
14293;BME280;62290;59.420;17.842;2023-02-16T07:11:38;101029.56;;;25.88;20.31
14293;BME280;62290;59.420;17.842;2023-02-16T07:14:06;101029.56;;;25.88;20.75
14293;BME280;62290;59.420;17.842;2023-02-16T07:16:36;101029.72;;;25.86;20.83
14293;BME280;62290;59.420;17.842;2023-02-16T07:19:04;101031.69;;;25.84;20.85
14293;BME280;62290;59.420;17.842;2023-02-16T07:21:32;101033.41;;;25.85;20.83
14293;BME280;62290;59.420;17.842;2023-02-16T07:24:00;101032.69;;;25.83;20.84
14293;BME280;62290;59.420;17.842;2023-02-16T07:26:29;101027.56;;;25.80;20.43
14293;BME280;62290;59.420;17.842;2023-02-16T07:28:57;101026.44;;;25.73;20.85
14293;BME280;62290;59.420;17.842;2023-02-16T07:31:25;101026.72;;;25.70;21.05
14293;BME280;62290;59.420;17.842;2023-02-16T07:33:54;101019.59;;;25.69;20.95
14293;BME280;62290;59.420;17.842;2023-02-16T07:36:22;101028.97;;;25.65;21.94
14293;BME280;62290;59.420;17.842;2023-02-16T07:38:51;101022.13;;;25.61;22.46
14293;BME280;62290;59.420;17.842;2023-02-16T07:41:19;101025.69;;;25.61;22.22
14293;BME280;62290;59.420;17.842;2023-02-16T07:43:47;101020.44;;;25.60;22.66
14293;BME280;62290;59.420;17.842;2023-02-16T07:46:16;101010.91;;;25.56;22.61
14293;BME280;62290;59.420;17.842;2023-02-16T07:48:46;101016.72;;;25.51;22.24
14293;BME280;62290;59.420;17.842;2023-02-16T07:51:21;101013.44;;;25.48;22.31
14293;BME280;62290;59.420;17.842;2023-02-16T07:53:50;101017.88;;;25.49;22.44
14293;BME280;62290;59.420;17.842;2023-02-16T07:56:19;101019.00;;;25.56;22.31
14293;BME280;62290;59.420;17.842;2023-02-16T07:58:47;101010.91;;;25.56;22.84
14293;BME280;62290;59.420;17.842;2023-02-16T08:01:18;101013.59;;;25.56;22.23
14293;BME280;62290;59.420;17.842;2023-02-16T08:03:46;101012.47;;;25.58;22.51
14293;BME280;62290;59.420;17.842;2023-02-16T08:06:14;101010.19;;;25.54;22.67
14293;BME280;62290;59.420;17.842;2023-02-16T08:08:44;101001.50;;;25.50;22.45
14293;BME280;62290;59.420;17.842;2023-02-16T08:11:15;100975.03;;;25.35;22.71
14293;BME280;62290;59.420;17.842;2023-02-16T08:13:45;101006.22;;;25.48;22.78
14293;BME280;62290;59.420;17.842;2023-02-16T08:16:15;100998.34;;;25.45;22.69
14293;BME280;62290;59.420;17.842;2023-02-16T08:18:44;100996.78;;;25.43;22.91
14293;BME280;62290;59.420;17.842;2023-02-16T08:21:13;101002.34;;;25.41;22.81
14293;BME280;62290;59.420;17.842;2023-02-16T08:23:45;100998.63;;;25.42;23.33
14293;BME280;62290;59.420;17.842;2023-02-16T08:26:15;101004.03;;;25.42;23.07
14293;BME280;62290;59.420;17.842;2023-02-16T08:28:44;100995.66;;;25.45;22.88
14293;BME280;62290;59.420;17.842;2023-02-16T08:31:13;100993.97;;;25.44;22.81
14293;BME280;62290;59.420;17.842;2023-02-16T08:33:42;100985.88;;;25.44;23.11
14293;BME280;62290;59.420;17.842;2023-02-16T08:36:16;100981.22;;;25.46;23.16
14293;BME280;62290;59.420;17.842;2023-02-16T08:38:46;100983.19;;;25.44;22.93
14293;BME280;62290;59.420;17.842;2023-02-16T08:41:16;100906.41;;;24.99;23.07
14293;BME280;62290;59.420;17.842;2023-02-16T08:43:45;100977.47;;;25.38;23.23
14293;BME280;62290;59.420;17.842;2023-02-16T08:46:13;100969.91;;;25.32;22.84
14293;BME280;62290;59.420;17.842;2023-02-16T08:48:42;100977.75;;;25.35;22.62
14293;BME280;62290;59.420;17.842;2023-02-16T08:51:13;100980.16;;;25.38;22.44
14293;BME280;62290;59.420;17.842;2023-02-16T08:53:41;100974.75;;;25.38;22.76
14293;BME280;62290;59.420;17.842;2023-02-16T08:56:12;100968.25;;;25.40;22.59
14293;BME280;62290;59.420;17.842;2023-02-16T08:58:40;100962.72;;;25.42;22.56
14293;BME280;62290;59.420;17.842;2023-02-16T09:01:09;100960.72;;;25.44;22.15
14293;BME280;62290;59.420;17.842;2023-02-16T09:03:39;100953.50;;;25.44;22.33
14293;BME280;62290;59.420;17.842;2023-02-16T09:06:09;100946.22;;;25.45;22.38
14293;BME280;62290;59.420;17.842;2023-02-16T09:08:38;100897.06;;;25.12;22.49
14293;BME280;62290;59.420;17.842;2023-02-16T09:11:08;100955.78;;;25.49;22.16
14293;BME280;62290;59.420;17.842;2023-02-16T09:13:39;100945.44;;;25.54;22.03
14293;BME280;62290;59.420;17.842;2023-02-16T09:16:10;100939.75;;;25.57;22.20
14293;BME280;62290;59.420;17.842;2023-02-16T09:18:39;100931.22;;;25.52;22.07
14293;BME280;62290;59.420;17.842;2023-02-16T09:21:10;100943.00;;;25.60;21.91
14293;BME280;62290;59.420;17.842;2023-02-16T09:23:42;100947.25;;;25.63;21.89
14293;BME280;62290;59.420;17.842;2023-02-16T09:26:10;100932.09;;;25.62;22.31
14293;BME280;62290;59.420;17.842;2023-02-16T09:28:40;100934.09;;;25.60;21.95
14293;BME280;62290;59.420;17.842;2023-02-16T09:31:09;100938.19;;;25.64;22.03
14293;BME280;62290;59.420;17.842;2023-02-16T09:33:38;100941.47;;;25.67;22.17
14293;BME280;62290;59.420;17.842;2023-02-16T09:36:08;100936.91;;;25.68;22.83
14293;BME280;62290;59.420;17.842;2023-02-16T09:38:37;100931.81;;;25.65;22.73
14293;BME280;62290;59.420;17.842;2023-02-16T09:41:10;100933.09;;;25.70;22.50
14293;BME280;62290;59.420;17.842;2023-02-16T09:43:48;100936.22;;;25.75;22.68
14293;BME280;62290;59.420;17.842;2023-02-16T09:46:20;100928.09;;;25.75;22.53
14293;BME280;62290;59.420;17.842;2023-02-16T09:48:49;100932.66;;;25.75;22.52
14293;BME280;62290;59.420;17.842;2023-02-16T09:51:22;100918.00;;;25.77;22.31
14293;BME280;62290;59.420;17.842;2023-02-16T09:54:06;100915.16;;;25.79;22.53
14293;BME280;62290;59.420;17.842;2023-02-16T09:56:45;100909.63;;;25.81;22.30
14293;BME280;62290;59.420;17.842;2023-02-16T09:59:35;100903.38;;;25.80;22.16
14293;BME280;62290;59.420;17.842;2023-02-16T10:02:22;100905.91;;;25.82;22.34
14293;BME280;62290;59.420;17.842;2023-02-16T10:05:02;100909.34;;;25.84;22.02
14293;BME280;62290;59.420;17.842;2023-02-16T10:07:44;100902.81;;;25.86;22.47
14293;BME280;62290;59.420;17.842;2023-02-16T10:10:16;100908.63;;;25.91;22.04
14293;BME280;62290;59.420;17.842;2023-02-16T10:12:51;100905.59;;;25.94;22.29
14293;BME280;62290;59.420;17.842;2023-02-16T10:15:25;100902.91;;;25.94;22.18
14293;BME280;62290;59.420;17.842;2023-02-16T10:17:56;100880.34;;;25.86;21.97
14293;BME280;62290;59.420;17.842;2023-02-16T10:20:26;100895.53;;;25.96;21.75
14293;BME280;62290;59.420;17.842;2023-02-16T10:22:59;100892.69;;;25.98;22.11
14293;BME280;62290;59.420;17.842;2023-02-16T10:25:35;100895.25;;;25.99;21.70
14293;BME280;62290;59.420;17.842;2023-02-16T10:28:13;100882.28;;;26.03;22.14
14293;BME280;62290;59.420;17.842;2023-02-16T10:30:48;100881.84;;;26.07;22.00
14293;BME280;62290;59.420;17.842;2023-02-16T10:33:27;100877.34;;;26.17;21.92
14293;BME280;62290;59.420;17.842;2023-02-16T10:36:00;100873.78;;;26.17;21.51
14293;BME280;62290;59.420;17.842;2023-02-16T10:38:35;100871.31;;;26.23;21.67
14293;BME280;62290;59.420;17.842;2023-02-16T10:41:12;100884.53;;;26.26;21.64
14293;BME280;62290;59.420;17.842;2023-02-16T10:43:49;100877.28;;;26.27;21.34
14293;BME280;62290;59.420;17.842;2023-02-16T10:46:25;100871.88;;;26.27;21.35
14293;BME280;62290;59.420;17.842;2023-02-16T10:48:54;100869.47;;;26.24;21.58
14293;BME280;62290;59.420;17.842;2023-02-16T10:51:25;100865.50;;;26.28;21.54
14293;BME280;62290;59.420;17.842;2023-02-16T10:54:00;100872.69;;;26.37;21.53
14293;BME280;62290;59.420;17.842;2023-02-16T10:56:40;100870.00;;;26.37;21.49
14293;BME280;62290;59.420;17.842;2023-02-16T10:59:15;100876.78;;;26.41;21.45
14293;BME280;62290;59.420;17.842;2023-02-16T11:01:47;100874.81;;;26.43;21.35
14293;BME280;62290;59.420;17.842;2023-02-16T11:04:39;100875.50;;;26.45;21.12
14293;BME280;62290;59.420;17.842;2023-02-16T11:07:10;100874.66;;;26.45;20.83
14293;BME280;62290;59.420;17.842;2023-02-16T11:09:39;100874.66;;;26.45;20.94
14293;BME280;62290;59.420;17.842;2023-02-16T11:12:22;100864.69;;;26.45;21.20
14293;BME280;62290;59.420;17.842;2023-02-16T11:14:53;100863.16;;;26.43;20.71
14293;BME280;62290;59.420;17.842;2023-02-16T11:17:23;100868.41;;;26.44;20.72
14293;BME280;62290;59.420;17.842;2023-02-16T11:19:55;100866.84;;;26.42;20.87
14293;BME280;62290;59.420;17.842;2023-02-16T11:22:30;100869.53;;;26.42;20.63
14293;BME280;62290;59.420;17.842;2023-02-16T11:25:20;100869.84;;;26.38;20.82
14293;BME280;62290;59.420;17.842;2023-02-16T11:27:52;100858.03;;;26.40;20.65
14293;BME280;62290;59.420;17.842;2023-02-16T11:30:29;100857.34;;;26.38;20.93
14293;BME280;62290;59.420;17.842;2023-02-16T11:33:01;100870.28;;;26.44;20.85
14293;BME280;62290;59.420;17.842;2023-02-16T11:35:31;100867.25;;;26.47;20.88
14293;BME280;62290;59.420;17.842;2023-02-16T11:38:22;100864.69;;;26.45;20.57
14293;BME280;62290;59.420;17.842;2023-02-16T11:40:53;100856.75;;;26.44;20.68
14293;BME280;62290;59.420;17.842;2023-02-16T11:43:25;100847.50;;;26.46;20.84
14293;BME280;62290;59.420;17.842;2023-02-16T11:45:59;100847.50;;;26.46;20.66
14293;BME280;62290;59.420;17.842;2023-02-16T11:48:31;100866.94;;;26.50;20.88
14293;BME280;62290;59.420;17.842;2023-02-16T11:51:01;100865.41;;;26.47;20.57
14293;BME280;62290;59.420;17.842;2023-02-16T11:53:32;100858.59;;;26.43;20.45
14293;BME280;62290;59.420;17.842;2023-02-16T11:56:21;100862.16;;;26.44;20.63
14293;BME280;62290;59.420;17.842;2023-02-16T11:59:14;100871.25;;;26.43;20.82
14293;BME280;62290;59.420;17.842;2023-02-16T12:01:59;100868.97;;;26.48;20.54
14293;BME280;62290;59.420;17.842;2023-02-16T12:04:41;100852.75;;;26.48;20.82
14293;BME280;62290;59.420;17.842;2023-02-16T12:07:17;100824.66;;;26.31;20.51
14293;BME280;62290;59.420;17.842;2023-02-16T12:09:55;100860.84;;;26.48;20.60
14293;BME280;62290;59.420;17.842;2023-02-16T12:12:32;100858.84;;;26.50;20.47
14293;BME280;62290;59.420;17.842;2023-02-16T12:15:12;100849.59;;;26.52;20.37
14293;BME280;62290;59.420;17.842;2023-02-16T12:17:55;100855.56;;;26.56;20.27
14293;BME280;62290;59.420;17.842;2023-02-16T12:20:38;100852.84;;;26.56;20.61
14293;BME280;62290;59.420;17.842;2023-02-16T12:23:17;100859.25;;;26.55;20.39
14293;BME280;62290;59.420;17.842;2023-02-16T12:25:54;100848.72;;;26.52;20.28
14293;BME280;62290;59.420;17.842;2023-02-16T12:28:35;100846.03;;;26.52;20.36
14293;BME280;62290;59.420;17.842;2023-02-16T12:31:13;100839.91;;;26.50;20.26
14293;BME280;62290;59.420;17.842;2023-02-16T12:33:54;100840.94;;;26.49;20.62
14293;BME280;62290;59.420;17.842;2023-02-16T12:36:44;100848.19;;;26.48;20.31
14293;BME280;62290;59.420;17.842;2023-02-16T12:39:21;100834.81;;;26.47;20.29
14293;BME280;62290;59.420;17.842;2023-02-16T12:42:00;100835.84;;;26.46;20.55
14293;BME280;62290;59.420;17.842;2023-02-16T12:44:38;100801.66;;;26.27;20.40
14293;BME280;62290;59.420;17.842;2023-02-16T12:47:12;100831.41;;;26.45;20.88
14293;BME280;62290;59.420;17.842;2023-02-16T12:49:48;100838.53;;;26.46;20.85
14293;BME280;62290;59.420;17.842;2023-02-16T12:52:34;100835.84;;;26.46;20.53
14293;BME280;62290;59.420;17.842;2023-02-16T12:55:16;100797.09;;;26.27;20.38
14293;BME280;62290;59.420;17.842;2023-02-16T12:57:50;100834.69;;;26.48;20.61
14293;BME280;62290;59.420;17.842;2023-02-16T13:00:23;100833.81;;;26.48;20.52
14293;BME280;62290;59.420;17.842;2023-02-16T13:02:55;100823.72;;;26.50;20.39
14293;BME280;62290;59.420;17.842;2023-02-16T13:05:30;100823.19;;;26.46;20.73
14293;BME280;62290;59.420;17.842;2023-02-16T13:08:07;100823.00;;;26.48;21.15
14293;BME280;62290;59.420;17.842;2023-02-16T13:10:52;100820.91;;;26.42;22.11